sensor_id;sensor_type;location;lat;lon;timestamp;P1;durP1;ratioP1;P2;durP2;ratioP2
22543;SDS011;11438;52.044;8.716;2023-06-14T00:00:09;2.05;;;1.60;;
22543;SDS011;11438;52.044;8.716;2023-06-14T00:02:37;2.75;;;1.90;;
22543;SDS011;11438;52.044;8.716;2023-06-14T00:05:06;5.88;;;1.42;;
22543;SDS011;11438;52.044;8.716;2023-06-14T00:07:36;3.13;;;1.50;;
22543;SDS011;11438;52.044;8.716;2023-06-14T00:10:09;2.53;;;1.45;;
22543;SDS011;11438;52.044;8.716;2023-06-14T00:12:39;4.65;;;2.17;;
22543;SDS011;11438;52.044;8.716;2023-06-14T00:15:05;1.98;;;1.45;;
22543;SDS011;11438;52.044;8.716;2023-06-14T00:17:34;3.53;;;1.55;;
22543;SDS011;11438;52.044;8.716;2023-06-14T00:20:01;3.72;;;1.63;;
22543;SDS011;11438;52.044;8.716;2023-06-14T00:22:29;1.65;;;1.20;;
22543;SDS011;11438;52.044;8.716;2023-06-14T00:24:55;2.53;;;1.40;;
22543;SDS011;11438;52.044;8.716;2023-06-14T00:27:21;2.30;;;1.70;;
22543;SDS011;11438;52.044;8.716;2023-06-14T00:29:46;3.95;;;1.60;;
22543;SDS011;11438;52.044;8.716;2023-06-14T00:32:12;2.67;;;1.80;;
22543;SDS011;11438;52.044;8.716;2023-06-14T00:34:37;3.58;;;1.70;;
22543;SDS011;11438;52.044;8.716;2023-06-14T00:37:03;2.47;;;1.67;;
22543;SDS011;11438;52.044;8.716;2023-06-14T00:39:29;6.50;;;1.88;;
22543;SDS011;11438;52.044;8.716;2023-06-14T00:41:54;3.22;;;1.80;;
22543;SDS011;11438;52.044;8.716;2023-06-14T00:44:20;2.80;;;1.60;;
22543;SDS011;11438;52.044;8.716;2023-06-14T00:46:46;3.15;;;1.80;;
22543;SDS011;11438;52.044;8.716;2023-06-14T00:49:14;3.45;;;1.85;;
22543;SDS011;11438;52.044;8.716;2023-06-14T00:51:41;2.72;;;1.67;;
22543;SDS011;11438;52.044;8.716;2023-06-14T00:54:07;2.95;;;1.70;;
22543;SDS011;11438;52.044;8.716;2023-06-14T00:56:35;4.45;;;1.63;;
22543;SDS011;11438;52.044;8.716;2023-06-14T00:59:01;3.17;;;1.70;;
22543;SDS011;11438;52.044;8.716;2023-06-14T01:01:27;2.75;;;1.88;;
22543;SDS011;11438;52.044;8.716;2023-06-14T01:03:53;2.25;;;1.23;;
22543;SDS011;11438;52.044;8.716;2023-06-14T01:11:54;2.22;;;1.52;;
22543;SDS011;11438;52.044;8.716;2023-06-14T01:14:23;1.67;;;1.23;;
22543;SDS011;11438;52.044;8.716;2023-06-14T01:16:52;2.13;;;1.33;;
22543;SDS011;11438;52.044;8.716;2023-06-14T01:19:18;3.17;;;1.83;;
22543;SDS011;11438;52.044;8.716;2023-06-14T01:21:47;4.70;;;1.77;;
22543;SDS011;11438;52.044;8.716;2023-06-14T01:24:16;3.42;;;1.85;;
22543;SDS011;11438;52.044;8.716;2023-06-14T01:26:44;3.70;;;1.48;;
22543;SDS011;11438;52.044;8.716;2023-06-14T01:29:16;2.30;;;1.80;;
22543;SDS011;11438;52.044;8.716;2023-06-14T01:31:42;2.42;;;1.52;;
22543;SDS011;11438;52.044;8.716;2023-06-14T01:34:08;2.80;;;1.48;;
22543;SDS011;11438;52.044;8.716;2023-06-14T01:36:35;2.92;;;1.40;;
22543;SDS011;11438;52.044;8.716;2023-06-14T01:39:02;3.63;;;1.58;;
22543;SDS011;11438;52.044;8.716;2023-06-14T01:41:30;3.85;;;1.60;;
22543;SDS011;11438;52.044;8.716;2023-06-14T01:43:56;4.10;;;1.70;;
22543;SDS011;11438;52.044;8.716;2023-06-14T01:46:23;2.08;;;1.40;;
22543;SDS011;11438;52.044;8.716;2023-06-14T01:48:48;3.85;;;1.38;;
22543;SDS011;11438;52.044;8.716;2023-06-14T01:51:14;2.45;;;1.60;;
22543;SDS011;11438;52.044;8.716;2023-06-14T01:53:40;3.95;;;1.55;;
22543;SDS011;11438;52.044;8.716;2023-06-14T01:56:05;1.77;;;1.50;;
22543;SDS011;11438;52.044;8.716;2023-06-14T01:58:31;3.42;;;1.45;;
22543;SDS011;11438;52.044;8.716;2023-06-14T02:00:57;4.32;;;1.50;;
22543;SDS011;11438;52.044;8.716;2023-06-14T02:03:25;3.65;;;1.42;;
22543;SDS011;11438;52.044;8.716;2023-06-14T02:05:51;1.58;;;1.40;;
22543;SDS011;11438;52.044;8.716;2023-06-14T02:08:17;1.80;;;1.10;;
22543;SDS011;11438;52.044;8.716;2023-06-14T02:10:42;2.67;;;1.60;;
22543;SDS011;11438;52.044;8.716;2023-06-14T02:13:08;3.25;;;1.70;;
22543;SDS011;11438;52.044;8.716;2023-06-14T02:15:34;3.28;;;1.65;;
22543;SDS011;11438;52.044;8.716;2023-06-14T02:18:03;2.08;;;1.60;;
22543;SDS011;11438;52.044;8.716;2023-06-14T02:20:29;3.35;;;1.40;;
22543;SDS011;11438;52.044;8.716;2023-06-14T02:22:55;2.67;;;1.70;;
22543;SDS011;11438;52.044;8.716;2023-06-14T02:25:20;3.03;;;1.70;;
22543;SDS011;11438;52.044;8.716;2023-06-14T02:27:46;3.00;;;1.33;;
22543;SDS011;11438;52.044;8.716;2023-06-14T02:30:11;2.30;;;1.50;;
22543;SDS011;11438;52.044;8.716;2023-06-14T02:32:37;2.03;;;1.65;;
22543;SDS011;11438;52.044;8.716;2023-06-14T02:35:03;1.80;;;1.25;;
22543;SDS011;11438;52.044;8.716;2023-06-14T02:37:29;1.80;;;1.50;;
22543;SDS011;11438;52.044;8.716;2023-06-14T02:39:55;3.97;;;1.83;;
22543;SDS011;11438;52.044;8.716;2023-06-14T02:42:21;2.97;;;1.63;;
22543;SDS011;11438;52.044;8.716;2023-06-14T02:44:46;5.78;;;1.60;;
22543;SDS011;11438;52.044;8.716;2023-06-14T02:47:16;3.20;;;1.90;;
22543;SDS011;11438;52.044;8.716;2023-06-14T02:49:44;2.72;;;1.50;;
22543;SDS011;11438;52.044;8.716;2023-06-14T02:52:13;4.70;;;1.80;;
22543;SDS011;11438;52.044;8.716;2023-06-14T02:54:39;3.13;;;1.63;;
22543;SDS011;11438;52.044;8.716;2023-06-14T02:57:05;1.90;;;1.55;;
22543;SDS011;11438;52.044;8.716;2023-06-14T02:59:32;2.40;;;1.45;;
22543;SDS011;11438;52.044;8.716;2023-06-14T03:01:58;2.53;;;1.70;;
22543;SDS011;11438;52.044;8.716;2023-06-14T03:04:24;3.53;;;1.90;;
22543;SDS011;11438;52.044;8.716;2023-06-14T03:06:50;2.42;;;1.70;;
22543;SDS011;11438;52.044;8.716;2023-06-14T03:09:16;2.35;;;1.77;;
22543;SDS011;11438;52.044;8.716;2023-06-14T03:11:42;3.75;;;2.40;;
22543;SDS011;11438;52.044;8.716;2023-06-14T03:14:07;3.28;;;2.45;;
22543;SDS011;11438;52.044;8.716;2023-06-14T03:16:33;2.30;;;1.83;;
22543;SDS011;11438;52.044;8.716;2023-06-14T03:18:59;4.95;;;1.70;;
22543;SDS011;11438;52.044;8.716;2023-06-14T03:21:25;3.63;;;1.83;;
22543;SDS011;11438;52.044;8.716;2023-06-14T03:23:51;2.50;;;1.50;;
22543;SDS011;11438;52.044;8.716;2023-06-14T03:26:17;4.10;;;1.50;;
22543;SDS011;11438;52.044;8.716;2023-06-14T03:28:46;4.07;;;1.77;;
22543;SDS011;11438;52.044;8.716;2023-06-14T03:31:14;2.20;;;1.60;;
22543;SDS011;11438;52.044;8.716;2023-06-14T03:33:41;2.28;;;1.60;;
22543;SDS011;11438;52.044;8.716;2023-06-14T03:36:06;3.88;;;1.83;;
22543;SDS011;11438;52.044;8.716;2023-06-14T03:38:32;3.38;;;1.80;;
22543;SDS011;11438;52.044;8.716;2023-06-14T03:40:59;3.70;;;1.52;;
22543;SDS011;11438;52.044;8.716;2023-06-14T03:43:24;2.58;;;1.90;;
22543;SDS011;11438;52.044;8.716;2023-06-14T03:45:50;3.08;;;1.73;;
22543;SDS011;11438;52.044;8.716;2023-06-14T03:48:16;2.50;;;1.75;;
22543;SDS011;11438;52.044;8.716;2023-06-14T03:50:41;2.40;;;1.60;;
22543;SDS011;11438;52.044;8.716;2023-06-14T03:53:08;4.95;;;1.67;;
22543;SDS011;11438;52.044;8.716;2023-06-14T03:55:33;4.05;;;1.80;;
22543;SDS011;11438;52.044;8.716;2023-06-14T03:57:59;2.90;;;1.80;;
22543;SDS011;11438;52.044;8.716;2023-06-14T04:00:25;1.85;;;1.40;;
22543;SDS011;11438;52.044;8.716;2023-06-14T04:02:51;2.28;;;1.60;;
22543;SDS011;11438;52.044;8.716;2023-06-14T04:05:17;2.80;;;1.80;;
22543;SDS011;11438;52.044;8.716;2023-06-14T04:07:44;3.45;;;1.60;;
22543;SDS011;11438;52.044;8.716;2023-06-14T04:10:11;2.50;;;1.58;;
22543;SDS011;11438;52.044;8.716;2023-06-14T04:12:38;2.75;;;1.60;;
22543;SDS011;11438;52.044;8.716;2023-06-14T04:15:04;2.22;;;1.75;;
22543;SDS011;11438;52.044;8.716;2023-06-14T04:17:33;2.38;;;1.50;;
22543;SDS011;11438;52.044;8.716;2023-06-14T04:19:59;2.67;;;1.52;;
22543;SDS011;11438;52.044;8.716;2023-06-14T04:22:25;3.85;;;1.67;;
22543;SDS011;11438;52.044;8.716;2023-06-14T04:24:55;3.30;;;1.65;;
22543;SDS011;11438;52.044;8.716;2023-06-14T04:27:24;2.90;;;1.40;;
22543;SDS011;11438;52.044;8.716;2023-06-14T04:29:51;2.50;;;1.27;;
22543;SDS011;11438;52.044;8.716;2023-06-14T04:32:25;4.63;;;1.48;;
22543;SDS011;11438;52.044;8.716;2023-06-14T04:34:52;2.25;;;1.40;;
22543;SDS011;11438;52.044;8.716;2023-06-14T04:37:18;2.17;;;1.55;;
22543;SDS011;11438;52.044;8.716;2023-06-14T04:39:46;1.77;;;1.40;;
22543;SDS011;11438;52.044;8.716;2023-06-14T04:42:12;3.60;;;1.63;;
22543;SDS011;11438;52.044;8.716;2023-06-14T04:44:41;3.15;;;1.30;;
22543;SDS011;11438;52.044;8.716;2023-06-14T04:47:08;4.05;;;1.50;;
22543;SDS011;11438;52.044;8.716;2023-06-14T04:49:34;3.10;;;1.58;;
22543;SDS011;11438;52.044;8.716;2023-06-14T04:51:59;2.47;;;1.60;;
22543;SDS011;11438;52.044;8.716;2023-06-14T04:54:26;3.35;;;1.40;;
22543;SDS011;11438;52.044;8.716;2023-06-14T04:56:52;3.72;;;1.30;;
22543;SDS011;11438;52.044;8.716;2023-06-14T04:59:21;3.33;;;1.30;;
22543;SDS011;11438;52.044;8.716;2023-06-14T05:01:50;4.53;;;1.63;;
22543;SDS011;11438;52.044;8.716;2023-06-14T05:04:16;3.08;;;1.40;;
22543;SDS011;11438;52.044;8.716;2023-06-14T05:06:43;1.60;;;1.17;;
22543;SDS011;11438;52.044;8.716;2023-06-14T05:09:10;1.95;;;1.50;;
22543;SDS011;11438;52.044;8.716;2023-06-14T05:11:36;2.30;;;1.30;;
22543;SDS011;11438;52.044;8.716;2023-06-14T05:14:01;2.70;;;1.42;;
22543;SDS011;11438;52.044;8.716;2023-06-14T05:16:26;3.15;;;1.20;;
22543;SDS011;11438;52.044;8.716;2023-06-14T05:18:54;2.55;;;1.20;;
22543;SDS011;11438;52.044;8.716;2023-06-14T05:21:20;2.00;;;1.00;;
22543;SDS011;11438;52.044;8.716;2023-06-14T05:23:45;1.33;;;1.00;;
22543;SDS011;11438;52.044;8.716;2023-06-14T05:26:11;3.38;;;1.13;;
22543;SDS011;11438;52.044;8.716;2023-06-14T05:28:36;3.10;;;1.20;;
22543;SDS011;11438;52.044;8.716;2023-06-14T05:31:02;1.52;;;1.00;;
22543;SDS011;11438;52.044;8.716;2023-06-14T05:33:27;2.67;;;1.20;;
22543;SDS011;11438;52.044;8.716;2023-06-14T05:35:53;1.77;;;1.10;;
22543;SDS011;11438;52.044;8.716;2023-06-14T05:38:20;1.27;;;1.05;;
22543;SDS011;11438;52.044;8.716;2023-06-14T05:40:46;1.40;;;0.90;;
22543;SDS011;11438;52.044;8.716;2023-06-14T05:43:11;1.40;;;1.00;;
22543;SDS011;11438;52.044;8.716;2023-06-14T05:45:37;1.20;;;1.02;;
22543;SDS011;11438;52.044;8.716;2023-06-14T05:48:02;1.27;;;1.13;;
22543;SDS011;11438;52.044;8.716;2023-06-14T05:50:28;2.85;;;1.05;;
22543;SDS011;11438;52.044;8.716;2023-06-14T05:52:53;2.00;;;1.30;;
22543;SDS011;11438;52.044;8.716;2023-06-14T05:55:19;2.92;;;1.00;;
22543;SDS011;11438;52.044;8.716;2023-06-14T05:57:45;3.30;;;1.05;;
22543;SDS011;11438;52.044;8.716;2023-06-14T06:00:11;2.65;;;1.15;;
22543;SDS011;11438;52.044;8.716;2023-06-14T06:02:39;1.35;;;1.08;;
22543;SDS011;11438;52.044;8.716;2023-06-14T06:05:06;1.80;;;1.10;;
22543;SDS011;11438;52.044;8.716;2023-06-14T06:07:31;2.55;;;1.20;;
22543;SDS011;11438;52.044;8.716;2023-06-14T06:09:57;2.72;;;1.30;;
22543;SDS011;11438;52.044;8.716;2023-06-14T06:12:22;1.30;;;1.10;;
22543;SDS011;11438;52.044;8.716;2023-06-14T06:14:48;2.28;;;1.10;;
22543;SDS011;11438;52.044;8.716;2023-06-14T06:17:13;3.22;;;1.05;;
22543;SDS011;11438;52.044;8.716;2023-06-14T06:19:39;2.53;;;1.10;;
22543;SDS011;11438;52.044;8.716;2023-06-14T06:22:04;2.47;;;1.20;;
22543;SDS011;11438;52.044;8.716;2023-06-14T06:24:31;3.25;;;1.00;;
22543;SDS011;11438;52.044;8.716;2023-06-14T06:26:57;1.70;;;1.00;;
22543;SDS011;11438;52.044;8.716;2023-06-14T06:29:22;1.55;;;1.10;;
22543;SDS011;11438;52.044;8.716;2023-06-14T06:31:48;2.20;;;1.17;;
22543;SDS011;11438;52.044;8.716;2023-06-14T06:34:13;1.77;;;0.88;;
22543;SDS011;11438;52.044;8.716;2023-06-14T06:36:39;1.55;;;1.05;;
22543;SDS011;11438;52.044;8.716;2023-06-14T06:39:04;1.40;;;1.00;;
22543;SDS011;11438;52.044;8.716;2023-06-14T06:41:34;1.75;;;1.02;;
22543;SDS011;11438;52.044;8.716;2023-06-14T06:44:04;3.47;;;0.85;;
22543;SDS011;11438;52.044;8.716;2023-06-14T06:46:31;2.45;;;1.00;;
22543;SDS011;11438;52.044;8.716;2023-06-14T06:48:58;1.63;;;1.02;;
22543;SDS011;11438;52.044;8.716;2023-06-14T06:51:24;2.75;;;1.10;;
22543;SDS011;11438;52.044;8.716;2023-06-14T06:53:53;1.52;;;1.10;;
22543;SDS011;11438;52.044;8.716;2023-06-14T06:56:19;0.90;;;0.80;;
22543;SDS011;11438;52.044;8.716;2023-06-14T06:58:47;1.52;;;1.00;;
22543;SDS011;11438;52.044;8.716;2023-06-14T07:01:16;2.13;;;1.00;;
22543;SDS011;11438;52.044;8.716;2023-06-14T07:03:42;3.45;;;1.17;;
22543;SDS011;11438;52.044;8.716;2023-06-14T07:06:08;1.15;;;0.80;;
22543;SDS011;11438;52.044;8.716;2023-06-14T07:08:33;1.80;;;1.02;;
22543;SDS011;11438;52.044;8.716;2023-06-14T07:10:59;1.33;;;0.85;;
22543;SDS011;11438;52.044;8.716;2023-06-14T07:13:25;2.97;;;1.13;;
22543;SDS011;11438;52.044;8.716;2023-06-14T07:15:50;2.75;;;1.10;;
22543;SDS011;11438;52.044;8.716;2023-06-14T07:18:18;5.72;;;1.00;;
22543;SDS011;11438;52.044;8.716;2023-06-14T07:20:45;3.30;;;1.10;;
22543;SDS011;11438;52.044;8.716;2023-06-14T07:23:10;2.95;;;1.05;;
22543;SDS011;11438;52.044;8.716;2023-06-14T07:25:36;4.60;;;1.20;;
22543;SDS011;11438;52.044;8.716;2023-06-14T07:28:01;1.73;;;1.10;;
22543;SDS011;11438;52.044;8.716;2023-06-14T07:30:27;5.85;;;0.90;;
22543;SDS011;11438;52.044;8.716;2023-06-14T07:32:53;1.00;;;0.80;;
22543;SDS011;11438;52.044;8.716;2023-06-14T07:35:19;1.15;;;0.95;;
22543;SDS011;11438;52.044;8.716;2023-06-14T07:37:44;1.15;;;0.90;;
22543;SDS011;11438;52.044;8.716;2023-06-14T07:40:12;2.65;;;0.80;;
22543;SDS011;11438;52.044;8.716;2023-06-14T07:42:38;3.70;;;1.02;;
22543;SDS011;11438;52.044;8.716;2023-06-14T07:45:03;1.35;;;0.90;;
22543;SDS011;11438;52.044;8.716;2023-06-14T07:47:30;1.98;;;0.90;;
22543;SDS011;11438;52.044;8.716;2023-06-14T07:49:55;3.38;;;0.85;;
22543;SDS011;11438;52.044;8.716;2023-06-14T07:52:21;1.45;;;0.90;;
22543;SDS011;11438;52.044;8.716;2023-06-14T07:54:46;1.95;;;0.90;;
22543;SDS011;11438;52.044;8.716;2023-06-14T07:57:12;2.00;;;1.00;;
22543;SDS011;11438;52.044;8.716;2023-06-14T07:59:38;2.13;;;1.25;;
22543;SDS011;11438;52.044;8.716;2023-06-14T08:02:04;2.05;;;1.15;;
22543;SDS011;11438;52.044;8.716;2023-06-14T08:04:29;1.13;;;0.85;;
22543;SDS011;11438;52.044;8.716;2023-06-14T08:06:56;3.00;;;1.10;;
22543;SDS011;11438;52.044;8.716;2023-06-14T08:09:21;2.88;;;1.00;;
22543;SDS011;11438;52.044;8.716;2023-06-14T08:11:47;1.48;;;1.05;;
22543;SDS011;11438;52.044;8.716;2023-06-14T08:14:13;1.35;;;1.10;;
22543;SDS011;11438;52.044;8.716;2023-06-14T08:16:38;3.63;;;1.13;;
22543;SDS011;11438;52.044;8.716;2023-06-14T08:19:04;2.45;;;1.10;;
22543;SDS011;11438;52.044;8.716;2023-06-14T08:21:30;2.30;;;1.15;;
22543;SDS011;11438;52.044;8.716;2023-06-14T08:27:20;1.73;;;1.10;;
22543;SDS011;11438;52.044;8.716;2023-06-14T08:29:46;1.38;;;0.93;;
22543;SDS011;11438;52.044;8.716;2023-06-14T08:32:11;1.45;;;1.00;;
22543;SDS011;11438;52.044;8.716;2023-06-14T08:34:37;1.50;;;1.05;;
22543;SDS011;11438;52.044;8.716;2023-06-14T08:37:02;2.95;;;0.98;;
22543;SDS011;11438;52.044;8.716;2023-06-14T08:39:28;2.38;;;1.02;;
22543;SDS011;11438;52.044;8.716;2023-06-14T08:41:54;1.30;;;1.00;;
22543;SDS011;11438;52.044;8.716;2023-06-14T08:44:21;1.73;;;0.98;;
22543;SDS011;11438;52.044;8.716;2023-06-14T08:46:47;1.10;;;0.90;;
22543;SDS011;11438;52.044;8.716;2023-06-14T08:49:13;1.33;;;0.70;;
22543;SDS011;11438;52.044;8.716;2023-06-14T08:51:41;1.15;;;0.90;;
22543;SDS011;11438;52.044;8.716;2023-06-14T08:54:08;1.40;;;0.98;;
22543;SDS011;11438;52.044;8.716;2023-06-14T08:56:36;2.00;;;0.82;;
22543;SDS011;11438;52.044;8.716;2023-06-14T08:59:03;1.40;;;0.95;;
22543;SDS011;11438;52.044;8.716;2023-06-14T09:01:33;1.25;;;0.80;;
22543;SDS011;11438;52.044;8.716;2023-06-14T09:03:59;1.20;;;1.02;;
22543;SDS011;11438;52.044;8.716;2023-06-14T09:06:25;1.15;;;0.90;;
22543;SDS011;11438;52.044;8.716;2023-06-14T09:08:53;1.85;;;0.80;;
22543;SDS011;11438;52.044;8.716;2023-06-14T09:11:19;2.35;;;0.98;;
22543;SDS011;11438;52.044;8.716;2023-06-14T09:13:45;1.40;;;0.80;;
22543;SDS011;11438;52.044;8.716;2023-06-14T09:16:11;1.73;;;1.10;;
22543;SDS011;11438;52.044;8.716;2023-06-14T09:18:38;2.35;;;1.35;;
22543;SDS011;11438;52.044;8.716;2023-06-14T09:21:06;1.92;;;0.82;;
22543;SDS011;11438;52.044;8.716;2023-06-14T09:23:36;5.85;;;0.95;;
22543;SDS011;11438;52.044;8.716;2023-06-14T09:26:07;1.42;;;1.10;;
22543;SDS011;11438;52.044;8.716;2023-06-14T09:28:44;1.52;;;0.90;;
22543;SDS011;11438;52.044;8.716;2023-06-14T09:31:14;1.65;;;0.98;;
22543;SDS011;11438;52.044;8.716;2023-06-14T09:33:44;1.83;;;1.13;;
22543;SDS011;11438;52.044;8.716;2023-06-14T09:36:15;1.75;;;1.13;;
22543;SDS011;11438;52.044;8.716;2023-06-14T09:38:42;3.38;;;1.00;;
22543;SDS011;11438;52.044;8.716;2023-06-14T09:41:24;1.65;;;0.88;;
22543;SDS011;11438;52.044;8.716;2023-06-14T09:44:03;2.00;;;1.10;;
22543;SDS011;11438;52.044;8.716;2023-06-14T09:46:30;1.40;;;0.90;;
22543;SDS011;11438;52.044;8.716;2023-06-14T09:48:57;2.20;;;1.20;;
22543;SDS011;11438;52.044;8.716;2023-06-14T09:51:23;1.35;;;0.90;;
22543;SDS011;11438;52.044;8.716;2023-06-14T09:53:49;1.85;;;1.17;;
22543;SDS011;11438;52.044;8.716;2023-06-14T09:56:17;1.33;;;1.05;;
22543;SDS011;11438;52.044;8.716;2023-06-14T09:58:52;3.40;;;1.00;;
22543;SDS011;11438;52.044;8.716;2023-06-14T10:01:20;1.20;;;0.90;;
22543;SDS011;11438;52.044;8.716;2023-06-14T10:03:49;3.13;;;1.10;;
22543;SDS011;11438;52.044;8.716;2023-06-14T10:06:18;1.20;;;0.90;;
22543;SDS011;11438;52.044;8.716;2023-06-14T10:08:45;1.95;;;1.00;;
22543;SDS011;11438;52.044;8.716;2023-06-14T10:11:12;2.38;;;1.00;;
22543;SDS011;11438;52.044;8.716;2023-06-14T10:13:38;2.25;;;1.10;;
22543;SDS011;11438;52.044;8.716;2023-06-14T10:16:10;1.83;;;0.90;;
22543;SDS011;11438;52.044;8.716;2023-06-14T10:18:48;1.58;;;0.98;;
22543;SDS011;11438;52.044;8.716;2023-06-14T10:21:38;1.17;;;1.00;;
22543;SDS011;11438;52.044;8.716;2023-06-14T10:24:10;1.48;;;0.98;;
22543;SDS011;11438;52.044;8.716;2023-06-14T10:26:53;1.88;;;1.10;;
22543;SDS011;11438;52.044;8.716;2023-06-14T10:29:22;1.42;;;0.98;;
22543;SDS011;11438;52.044;8.716;2023-06-14T10:31:48;3.17;;;1.17;;
22543;SDS011;11438;52.044;8.716;2023-06-14T10:34:24;1.40;;;0.90;;
22543;SDS011;11438;52.044;8.716;2023-06-14T10:37:01;1.52;;;0.95;;
22543;SDS011;11438;52.044;8.716;2023-06-14T10:39:29;1.48;;;1.20;;
22543;SDS011;11438;52.044;8.716;2023-06-14T10:41:56;1.85;;;1.30;;
22543;SDS011;11438;52.044;8.716;2023-06-14T10:46:48;1.90;;;1.10;;
22543;SDS011;11438;52.044;8.716;2023-06-14T10:49:17;1.50;;;0.90;;
22543;SDS011;11438;52.044;8.716;2023-06-14T10:51:44;4.28;;;1.10;;
22543;SDS011;11438;52.044;8.716;2023-06-14T10:54:14;1.50;;;1.05;;
22543;SDS011;11438;52.044;8.716;2023-06-14T10:59:16;1.38;;;0.88;;
22543;SDS011;11438;52.044;8.716;2023-06-14T11:04:52;3.05;;;0.85;;
22543;SDS011;11438;52.044;8.716;2023-06-14T11:07:30;0.80;;;0.70;;
22543;SDS011;11438;52.044;8.716;2023-06-14T11:13:04;3.38;;;1.00;;
22543;SDS011;11438;52.044;8.716;2023-06-14T11:15:30;1.20;;;0.90;;
22543;SDS011;11438;52.044;8.716;2023-06-14T11:17:57;2.80;;;0.90;;
22543;SDS011;11438;52.044;8.716;2023-06-14T11:20:25;3.85;;;1.20;;
22543;SDS011;11438;52.044;8.716;2023-06-14T11:22:52;1.73;;;1.00;;
22543;SDS011;11438;52.044;8.716;2023-06-14T11:25:18;1.20;;;1.00;;
22543;SDS011;11438;52.044;8.716;2023-06-14T11:27:44;3.10;;;1.10;;
22543;SDS011;11438;52.044;8.716;2023-06-14T11:30:10;2.65;;;1.20;;
22543;SDS011;11438;52.044;8.716;2023-06-14T11:32:37;2.90;;;1.15;;
22543;SDS011;11438;52.044;8.716;2023-06-14T11:35:03;1.70;;;1.10;;
22543;SDS011;11438;52.044;8.716;2023-06-14T11:37:32;1.70;;;1.20;;
22543;SDS011;11438;52.044;8.716;2023-06-14T11:40:01;1.67;;;1.30;;
22543;SDS011;11438;52.044;8.716;2023-06-14T11:42:33;1.70;;;1.25;;
22543;SDS011;11438;52.044;8.716;2023-06-14T11:44:59;1.60;;;1.20;;
22543;SDS011;11438;52.044;8.716;2023-06-14T11:47:24;3.35;;;1.15;;
22543;SDS011;11438;52.044;8.716;2023-06-14T11:49:57;1.30;;;1.10;;
22543;SDS011;11438;52.044;8.716;2023-06-14T11:52:23;2.70;;;1.38;;
22543;SDS011;11438;52.044;8.716;2023-06-14T11:54:49;1.60;;;1.15;;
22543;SDS011;11438;52.044;8.716;2023-06-14T11:57:15;1.05;;;0.95;;
22543;SDS011;11438;52.044;8.716;2023-06-14T11:59:43;1.70;;;1.20;;
22543;SDS011;11438;52.044;8.716;2023-06-14T12:02:19;2.13;;;1.00;;
22543;SDS011;11438;52.044;8.716;2023-06-14T12:04:46;2.15;;;0.95;;
22543;SDS011;11438;52.044;8.716;2023-06-14T12:07:16;1.25;;;1.10;;
22543;SDS011;11438;52.044;8.716;2023-06-14T12:12:20;3.40;;;1.27;;
22543;SDS011;11438;52.044;8.716;2023-06-14T12:14:47;1.63;;;1.15;;
22543;SDS011;11438;52.044;8.716;2023-06-14T12:17:12;2.05;;;1.20;;
22543;SDS011;11438;52.044;8.716;2023-06-14T12:19:42;3.67;;;1.20;;
22543;SDS011;11438;52.044;8.716;2023-06-14T12:22:14;1.55;;;1.08;;
22543;SDS011;11438;52.044;8.716;2023-06-14T12:24:44;1.35;;;0.77;;
22543;SDS011;11438;52.044;8.716;2023-06-14T12:27:10;1.88;;;1.08;;
22543;SDS011;11438;52.044;8.716;2023-06-14T12:29:40;0.88;;;0.70;;
22543;SDS011;11438;52.044;8.716;2023-06-14T12:32:08;1.25;;;0.90;;
22543;SDS011;11438;52.044;8.716;2023-06-14T12:34:34;1.85;;;0.98;;
22543;SDS011;11438;52.044;8.716;2023-06-14T12:37:00;2.35;;;1.02;;
22543;SDS011;11438;52.044;8.716;2023-06-14T12:39:26;2.28;;;1.00;;
22543;SDS011;11438;52.044;8.716;2023-06-14T12:41:52;1.25;;;0.90;;
22543;SDS011;11438;52.044;8.716;2023-06-14T12:44:18;4.43;;;0.98;;
22543;SDS011;11438;52.044;8.716;2023-06-14T12:46:43;1.88;;;0.90;;
22543;SDS011;11438;52.044;8.716;2023-06-14T12:49:09;1.00;;;0.80;;
22543;SDS011;11438;52.044;8.716;2023-06-14T12:51:36;1.40;;;0.90;;
22543;SDS011;11438;52.044;8.716;2023-06-14T12:54:02;2.70;;;0.93;;
22543;SDS011;11438;52.044;8.716;2023-06-14T12:56:27;2.75;;;1.00;;
22543;SDS011;11438;52.044;8.716;2023-06-14T12:58:53;1.65;;;0.77;;
22543;SDS011;11438;52.044;8.716;2023-06-14T13:01:19;2.30;;;0.98;;
22543;SDS011;11438;52.044;8.716;2023-06-14T13:03:45;1.27;;;1.00;;
22543;SDS011;11438;52.044;8.716;2023-06-14T13:06:11;3.88;;;1.00;;
22543;SDS011;11438;52.044;8.716;2023-06-14T13:08:37;1.10;;;1.00;;
22543;SDS011;11438;52.044;8.716;2023-06-14T13:11:02;1.55;;;0.90;;
22543;SDS011;11438;52.044;8.716;2023-06-14T13:13:28;1.55;;;1.08;;
22543;SDS011;11438;52.044;8.716;2023-06-14T13:15:53;1.92;;;1.02;;
22543;SDS011;11438;52.044;8.716;2023-06-14T13:18:19;1.42;;;0.90;;
22543;SDS011;11438;52.044;8.716;2023-06-14T13:20:45;1.60;;;1.20;;
22543;SDS011;11438;52.044;8.716;2023-06-14T13:23:11;1.42;;;1.00;;
22543;SDS011;11438;52.044;8.716;2023-06-14T13:25:37;1.20;;;1.05;;
22543;SDS011;11438;52.044;8.716;2023-06-14T13:28:03;1.35;;;1.23;;
22543;SDS011;11438;52.044;8.716;2023-06-14T13:30:29;1.70;;;1.08;;
22543;SDS011;11438;52.044;8.716;2023-06-14T13:32:56;1.13;;;1.02;;
22543;SDS011;11438;52.044;8.716;2023-06-14T13:35:22;1.25;;;0.95;;
22543;SDS011;11438;52.044;8.716;2023-06-14T13:37:49;1.25;;;0.80;;
22543;SDS011;11438;52.044;8.716;2023-06-14T13:40:14;1.65;;;1.15;;
22543;SDS011;11438;52.044;8.716;2023-06-14T13:42:40;3.10;;;1.23;;
22543;SDS011;11438;52.044;8.716;2023-06-14T13:45:06;2.88;;;1.45;;
22543;SDS011;11438;52.044;8.716;2023-06-14T13:47:33;2.45;;;1.10;;
22543;SDS011;11438;52.044;8.716;2023-06-14T13:49:58;2.10;;;1.30;;
22543;SDS011;11438;52.044;8.716;2023-06-14T13:52:24;2.25;;;1.45;;
22543;SDS011;11438;52.044;8.716;2023-06-14T13:54:50;1.70;;;1.23;;
22543;SDS011;11438;52.044;8.716;2023-06-14T13:57:16;1.50;;;1.23;;
22543;SDS011;11438;52.044;8.716;2023-06-14T13:59:42;1.95;;;1.45;;
22543;SDS011;11438;52.044;8.716;2023-06-14T14:02:09;3.80;;;1.17;;
22543;SDS011;11438;52.044;8.716;2023-06-14T14:04:35;2.33;;;1.40;;
22543;SDS011;11438;52.044;8.716;2023-06-14T14:07:01;2.75;;;1.40;;
22543;SDS011;11438;52.044;8.716;2023-06-14T14:09:27;3.60;;;1.40;;
22543;SDS011;11438;52.044;8.716;2023-06-14T14:11:53;2.25;;;1.30;;
22543;SDS011;11438;52.044;8.716;2023-06-14T14:14:18;2.97;;;1.33;;
22543;SDS011;11438;52.044;8.716;2023-06-14T14:16:43;3.88;;;1.25;;
22543;SDS011;11438;52.044;8.716;2023-06-14T14:19:09;1.92;;;1.30;;
22543;SDS011;11438;52.044;8.716;2023-06-14T14:21:34;1.67;;;1.33;;
22543;SDS011;11438;52.044;8.716;2023-06-14T14:24:00;3.63;;;1.45;;
22543;SDS011;11438;52.044;8.716;2023-06-14T14:26:26;2.92;;;1.80;;
22543;SDS011;11438;52.044;8.716;2023-06-14T14:28:51;2.50;;;1.50;;
22543;SDS011;11438;52.044;8.716;2023-06-14T14:31:17;3.65;;;1.40;;
22543;SDS011;11438;52.044;8.716;2023-06-14T14:33:43;2.85;;;1.60;;
22543;SDS011;11438;52.044;8.716;2023-06-14T14:36:08;2.30;;;1.70;;
22543;SDS011;11438;52.044;8.716;2023-06-14T14:38:34;2.00;;;1.48;;
22543;SDS011;11438;52.044;8.716;2023-06-14T14:41:00;3.20;;;1.70;;
22543;SDS011;11438;52.044;8.716;2023-06-14T14:43:25;1.55;;;1.30;;
22543;SDS011;11438;52.044;8.716;2023-06-14T14:45:51;2.90;;;1.60;;
22543;SDS011;11438;52.044;8.716;2023-06-14T14:48:17;1.73;;;1.50;;
22543;SDS011;11438;52.044;8.716;2023-06-14T14:50:43;2.22;;;1.73;;
22543;SDS011;11438;52.044;8.716;2023-06-14T14:53:08;2.20;;;1.70;;
22543;SDS011;11438;52.044;8.716;2023-06-14T14:55:34;1.98;;;1.73;;
22543;SDS011;11438;52.044;8.716;2023-06-14T14:58:01;4.30;;;1.63;;
22543;SDS011;11438;52.044;8.716;2023-06-14T15:00:27;1.88;;;1.60;;
22543;SDS011;11438;52.044;8.716;2023-06-14T15:02:53;2.17;;;1.52;;
22543;SDS011;11438;52.044;8.716;2023-06-14T15:05:19;2.53;;;1.80;;
22543;SDS011;11438;52.044;8.716;2023-06-14T15:07:44;4.22;;;1.95;;